sensor_id;sensor_type;location;lat;lon;timestamp;pressure;altitude;pressure_sealevel;temperature;humidity
56719;BME280;42597;40.636;0.278;2024-03-17T00:01:02;97896.59;;;19.96;57.10
56719;BME280;42597;40.636;0.278;2024-03-17T00:03:29;97895.41;;;19.97;56.71
56719;BME280;42597;40.636;0.278;2024-03-17T00:05:59;97902.88;;;19.96;57.01
56719;BME280;42597;40.636;0.278;2024-03-17T00:08:25;97908.34;;;19.96;56.51
56719;BME280;42597;40.636;0.278;2024-03-17T00:10:54;97909.13;;;19.97;56.79
56719;BME280;42597;40.636;0.278;2024-03-17T00:13:21;97893.84;;;19.96;56.69
56719;BME280;42597;40.636;0.278;2024-03-17T00:15:50;97888.78;;;19.94;56.56
56719;BME280;42597;40.636;0.278;2024-03-17T00:18:16;97883.28;;;19.94;56.68
56719;BME280;42597;40.636;0.278;2024-03-17T00:20:42;97878.16;;;19.93;56.82
56719;BME280;42597;40.636;0.278;2024-03-17T00:23:09;97868.38;;;19.92;56.67
56719;BME280;42597;40.636;0.278;2024-03-17T00:25:37;97865.25;;;19.83;57.21
56719;BME280;42597;40.636;0.278;2024-03-17T00:28:04;97866.41;;;19.89;56.73
56719;BME280;42597;40.636;0.278;2024-03-17T00:30:30;97875.41;;;19.89;56.57
56719;BME280;42597;40.636;0.278;2024-03-17T00:32:57;97869.16;;;19.85;57.00
56719;BME280;42597;40.636;0.278;2024-03-17T00:35:26;97864.03;;;19.77;57.46
56719;BME280;42597;40.636;0.278;2024-03-17T00:37:52;97861.31;;;19.84;56.68
56719;BME280;42597;40.636;0.278;2024-03-17T00:40:19;97858.16;;;19.82;56.77
56719;BME280;42597;40.636;0.278;2024-03-17T00:42:45;97851.13;;;19.81;57.45
56719;BME280;42597;40.636;0.278;2024-03-17T00:45:11;97846.06;;;19.86;56.57
56719;BME280;42597;40.636;0.278;2024-03-17T00:47:38;97843.28;;;19.79;57.12
56719;BME280;42597;40.636;0.278;2024-03-17T00:50:05;97840.94;;;19.74;57.23
56719;BME280;42597;40.636;0.278;2024-03-17T00:52:34;97833.88;;;19.73;57.07
56719;BME280;42597;40.636;0.278;2024-03-17T00:55:00;97833.03;;;19.51;58.25
56719;BME280;42597;40.636;0.278;2024-03-17T00:57:26;97823.28;;;19.64;57.85
56719;BME280;42597;40.636;0.278;2024-03-17T00:59:52;97817.84;;;19.82;57.07
56719;BME280;42597;40.636;0.278;2024-03-17T01:02:18;97817.41;;;19.62;57.78
56719;BME280;42597;40.636;0.278;2024-03-17T01:04:44;97811.16;;;19.69;57.49
56719;BME280;42597;40.636;0.278;2024-03-17T01:07:10;97829.19;;;19.70;57.69
56719;BME280;42597;40.636;0.278;2024-03-17T01:09:36;97828.38;;;19.69;57.38
56719;BME280;42597;40.636;0.278;2024-03-17T01:12:02;97834.66;;;19.73;57.47
56719;BME280;42597;40.636;0.278;2024-03-17T01:14:28;97825.25;;;19.64;57.79
56719;BME280;42597;40.636;0.278;2024-03-17T01:16:55;97825.97;;;19.61;57.88
56719;BME280;42597;40.636;0.278;2024-03-17T01:19:21;97816.59;;;19.58;58.21
56719;BME280;42597;40.636;0.278;2024-03-17T01:21:46;97812.72;;;19.77;57.39
56719;BME280;42597;40.636;0.278;2024-03-17T01:24:12;97806.41;;;19.55;58.08
56719;BME280;42597;40.636;0.278;2024-03-17T01:26:38;97813.53;;;19.74;57.23
56719;BME280;42597;40.636;0.278;2024-03-17T01:29:06;97816.25;;;19.70;57.23
56719;BME280;42597;40.636;0.278;2024-03-17T01:31:34;97808.75;;;19.60;57.91
56719;BME280;42597;40.636;0.278;2024-03-17T01:33:59;97818.22;;;19.66;57.50
56719;BME280;42597;40.636;0.278;2024-03-17T01:36:25;97821.75;;;19.70;57.49
56719;BME280;42597;40.636;0.278;2024-03-17T01:38:51;97820.56;;;19.68;57.51
56719;BME280;42597;40.636;0.278;2024-03-17T01:41:16;97809.56;;;19.64;57.81
56719;BME280;42597;40.636;0.278;2024-03-17T01:43:42;97795.47;;;19.69;56.99
56719;BME280;42597;40.636;0.278;2024-03-17T01:46:13;97802.13;;;19.65;57.17
56719;BME280;42597;40.636;0.278;2024-03-17T01:48:39;97806.47;;;19.66;57.52
56719;BME280;42597;40.636;0.278;2024-03-17T01:51:07;97806.84;;;19.64;56.99
56719;BME280;42597;40.636;0.278;2024-03-17T01:53:35;97805.66;;;19.65;57.35
56719;BME280;42597;40.636;0.278;2024-03-17T01:56:00;97792.75;;;19.62;57.55
56719;BME280;42597;40.636;0.278;2024-03-17T01:58:27;97785.31;;;19.63;57.25
56719;BME280;42597;40.636;0.278;2024-03-17T02:00:56;97788.41;;;19.61;57.73
56719;BME280;42597;40.636;0.278;2024-03-17T02:03:21;97795.88;;;19.64;57.44
56719;BME280;42597;40.636;0.278;2024-03-17T02:05:47;97786.09;;;19.67;57.30
56719;BME280;42597;40.636;0.278;2024-03-17T02:08:13;97777.41;;;19.58;57.64
56719;BME280;42597;40.636;0.278;2024-03-17T02:10:39;97769.66;;;19.67;57.78
56719;BME280;42597;40.636;0.278;2024-03-17T02:13:04;97765.72;;;19.64;57.60
56719;BME280;42597;40.636;0.278;2024-03-17T02:15:32;97766.50;;;19.61;57.37
56719;BME280;42597;40.636;0.278;2024-03-17T02:17:58;97750.81;;;19.65;56.88
56719;BME280;42597;40.636;0.278;2024-03-17T02:20:23;97761.00;;;19.61;57.27
56719;BME280;42597;40.636;0.278;2024-03-17T02:23:09;97750.03;;;19.54;57.47
56719;BME280;42597;40.636;0.278;2024-03-17T02:25:35;97747.31;;;19.65;56.80
56719;BME280;42597;40.636;0.278;2024-03-17T02:28:01;97742.19;;;19.56;57.26
56719;BME280;42597;40.636;0.278;2024-03-17T02:30:27;97737.09;;;19.58;57.64
56719;BME280;42597;40.636;0.278;2024-03-17T02:32:56;97738.25;;;19.57;57.57
56719;BME280;42597;40.636;0.278;2024-03-17T02:35:24;97739.06;;;19.61;57.17
56719;BME280;42597;40.636;0.278;2024-03-17T02:37:50;97733.59;;;19.61;57.29
56719;BME280;42597;40.636;0.278;2024-03-17T02:40:16;97726.16;;;19.58;57.19
56719;BME280;42597;40.636;0.278;2024-03-17T02:42:43;97728.88;;;19.51;57.43
56719;BME280;42597;40.636;0.278;2024-03-17T02:45:11;97734.31;;;19.37;57.24
56719;BME280;42597;40.636;0.278;2024-03-17T02:47:38;97726.50;;;19.53;57.36
56719;BME280;42597;40.636;0.278;2024-03-17T02:50:04;97736.28;;;19.58;57.42
56719;BME280;42597;40.636;0.278;2024-03-17T02:52:29;97740.63;;;19.55;57.20
56719;BME280;42597;40.636;0.278;2024-03-17T02:54:55;97739.06;;;19.54;57.32
56719;BME280;42597;40.636;0.278;2024-03-17T02:57:22;97733.56;;;19.54;57.31
56719;BME280;42597;40.636;0.278;2024-03-17T02:59:50;97722.59;;;19.51;57.50
56719;BME280;42597;40.636;0.278;2024-03-17T03:02:17;97722.22;;;19.52;57.32
56719;BME280;42597;40.636;0.278;2024-03-17T03:04:43;97721.44;;;19.55;57.06
56719;BME280;42597;40.636;0.278;2024-03-17T03:07:09;97722.63;;;19.54;57.10
56719;BME280;42597;40.636;0.278;2024-03-17T03:09:34;97714.75;;;19.49;57.18
56719;BME280;42597;40.636;0.278;2024-03-17T03:12:00;97721.81;;;19.50;57.49
56719;BME280;42597;40.636;0.278;2024-03-17T03:14:30;97712.44;;;19.51;57.27
56719;BME280;42597;40.636;0.278;2024-03-17T03:16:56;97712.00;;;19.49;56.97
56719;BME280;42597;40.636;0.278;2024-03-17T03:19:21;97703.78;;;19.49;57.28
56719;BME280;42597;40.636;0.278;2024-03-17T03:21:47;97711.25;;;19.52;57.25
56719;BME280;42597;40.636;0.278;2024-03-17T03:24:14;97705.38;;;19.50;57.16
56719;BME280;42597;40.636;0.278;2024-03-17T03:26:40;97708.50;;;19.45;57.13
56719;BME280;42597;40.636;0.278;2024-03-17T03:29:06;97714.38;;;19.51;57.21
56719;BME280;42597;40.636;0.278;2024-03-17T03:31:32;97717.13;;;19.47;56.98
56719;BME280;42597;40.636;0.278;2024-03-17T03:33:59;97711.22;;;19.45;57.66
56719;BME280;42597;40.636;0.278;2024-03-17T03:36:29;97712.81;;;19.46;57.18
56719;BME280;42597;40.636;0.278;2024-03-17T03:38:55;97713.97;;;19.45;57.53
56719;BME280;42597;40.636;0.278;2024-03-17T03:41:23;97713.97;;;19.45;57.43
56719;BME280;42597;40.636;0.278;2024-03-17T03:43:50;97715.56;;;19.42;57.10
56719;BME280;42597;40.636;0.278;2024-03-17T03:46:16;97717.09;;;19.40;57.35
56719;BME280;42597;40.636;0.278;2024-03-17T03:48:42;97708.88;;;19.43;57.16
56719;BME280;42597;40.636;0.278;2024-03-17T03:51:08;97713.19;;;19.44;57.62
56719;BME280;42597;40.636;0.278;2024-03-17T03:53:36;97724.16;;;19.41;57.05
56719;BME280;42597;40.636;0.278;2024-03-17T03:56:06;97717.88;;;19.40;56.88
56719;BME280;42597;40.636;0.278;2024-03-17T03:58:36;97715.94;;;19.41;57.36
56719;BME280;42597;40.636;0.278;2024-03-17T04:01:05;97714.38;;;19.40;57.53
56719;BME280;42597;40.636;0.278;2024-03-17T04:03:32;97706.91;;;19.37;57.46
56719;BME280;42597;40.636;0.278;2024-03-17T04:06:05;97695.97;;;19.37;57.68
56719;BME280;42597;40.636;0.278;2024-03-17T04:08:35;97689.69;;;19.40;56.75
56719;BME280;42597;40.636;0.278;2024-03-17T04:11:02;97696.34;;;19.35;57.39
56719;BME280;42597;40.636;0.278;2024-03-17T04:13:31;97710.03;;;19.21;56.85
56719;BME280;42597;40.636;0.278;2024-03-17T04:15:58;97710.81;;;19.29;57.81
56719;BME280;42597;40.636;0.278;2024-03-17T04:18:25;97697.50;;;19.06;57.64
56719;BME280;42597;40.636;0.278;2024-03-17T04:20:52;97697.47;;;18.95;59.04
56719;BME280;42597;40.636;0.278;2024-03-17T04:23:20;97687.31;;;19.13;57.91
56719;BME280;42597;40.636;0.278;2024-03-17T04:25:46;97688.13;;;19.24;57.69
56719;BME280;42597;40.636;0.278;2024-03-17T04:28:11;97679.53;;;19.22;57.70
56719;BME280;42597;40.636;0.278;2024-03-17T04:30:37;97682.63;;;19.17;57.92
56719;BME280;42597;40.636;0.278;2024-03-17T04:33:02;97684.22;;;19.22;57.89
56719;BME280;42597;40.636;0.278;2024-03-17T04:35:29;97694.38;;;19.21;57.87
56719;BME280;42597;40.636;0.278;2024-03-17T04:37:54;97700.66;;;19.29;57.35
56719;BME280;42597;40.636;0.278;2024-03-17T04:40:22;97693.22;;;19.30;57.41
56719;BME280;42597;40.636;0.278;2024-03-17T04:42:48;97689.31;;;19.27;57.61
56719;BME280;42597;40.636;0.278;2024-03-17T04:45:13;97692.81;;;19.28;57.70
56719;BME280;42597;40.636;0.278;2024-03-17T04:47:39;97692.03;;;19.23;57.63
56719;BME280;42597;40.636;0.278;2024-03-17T04:50:05;97683.41;;;19.21;57.69
56719;BME280;42597;40.636;0.278;2024-03-17T04:52:31;97689.69;;;19.26;57.85
56719;BME280;42597;40.636;0.278;2024-03-17T04:54:56;97685.78;;;19.27;57.46
56719;BME280;42597;40.636;0.278;2024-03-17T04:57:22;97688.13;;;19.24;57.46
56719;BME280;42597;40.636;0.278;2024-03-17T04:59:47;97692.41;;;19.26;57.41
56719;BME280;42597;40.636;0.278;2024-03-17T05:02:13;97697.13;;;19.25;57.64
56719;BME280;42597;40.636;0.278;2024-03-17T05:04:39;97706.13;;;19.26;57.24
56719;BME280;42597;40.636;0.278;2024-03-17T05:07:05;97719.03;;;19.21;57.60
56719;BME280;42597;40.636;0.278;2024-03-17T05:09:30;97712.78;;;19.24;57.30
56719;BME280;42597;40.636;0.278;2024-03-17T05:11:56;97721.00;;;19.24;57.61
56719;BME280;42597;40.636;0.278;2024-03-17T05:14:21;97721.00;;;19.24;57.25
56719;BME280;42597;40.636;0.278;2024-03-17T05:16:50;97714.72;;;19.20;57.40
56719;BME280;42597;40.636;0.278;2024-03-17T05:19:16;97715.50;;;19.24;57.41
56719;BME280;42597;40.636;0.278;2024-03-17T05:21:43;97710.03;;;19.24;57.36
56719;BME280;42597;40.636;0.278;2024-03-17T05:24:10;97706.88;;;18.97;58.41
56719;BME280;42597;40.636;0.278;2024-03-17T05:26:36;97715.50;;;19.10;57.92
56719;BME280;42597;40.636;0.278;2024-03-17T05:29:01;97716.28;;;19.14;57.88
56719;BME280;42597;40.636;0.278;2024-03-17T05:31:27;97711.59;;;19.18;57.56
56719;BME280;42597;40.636;0.278;2024-03-17T05:33:53;97719.41;;;19.16;57.25
56719;BME280;42597;40.636;0.278;2024-03-17T05:36:19;97710.81;;;19.14;57.43
56719;BME280;42597;40.636;0.278;2024-03-17T05:38:47;97714.69;;;19.13;57.40
56719;BME280;42597;40.636;0.278;2024-03-17T05:41:13;97712.38;;;19.15;57.56
56719;BME280;42597;40.636;0.278;2024-03-17T05:43:41;97713.91;;;19.13;57.18
56719;BME280;42597;40.636;0.278;2024-03-17T05:46:11;97723.72;;;19.10;57.69
56719;BME280;42597;40.636;0.278;2024-03-17T05:48:40;97723.31;;;19.08;57.46
56719;BME280;42597;40.636;0.278;2024-03-17T05:51:07;97728.00;;;19.08;57.62
56719;BME280;42597;40.636;0.278;2024-03-17T05:53:33;97727.25;;;19.14;56.65
56719;BME280;42597;40.636;0.278;2024-03-17T05:56:00;97714.34;;;19.15;57.64
56719;BME280;42597;40.636;0.278;2024-03-17T05:58:25;97725.66;;;19.17;57.39
56719;BME280;42597;40.636;0.278;2024-03-17T06:00:51;97717.06;;;19.15;57.34
56719;BME280;42597;40.636;0.278;2024-03-17T06:03:16;97706.84;;;19.05;57.74
56719;BME280;42597;40.636;0.278;2024-03-17T06:05:43;97713.50;;;19.00;56.94
56719;BME280;42597;40.636;0.278;2024-03-17T06:08:10;97729.94;;;19.00;57.94
56719;BME280;42597;40.636;0.278;2024-03-17T06:10:37;97727.16;;;18.82;57.44
56719;BME280;42597;40.636;0.278;2024-03-17T06:13:03;97722.94;;;19.06;57.42
56719;BME280;42597;40.636;0.278;2024-03-17T06:15:30;97727.63;;;19.13;57.38
56719;BME280;42597;40.636;0.278;2024-03-17T06:17:56;97733.50;;;19.11;57.20
56719;BME280;42597;40.636;0.278;2024-03-17T06:20:23;97743.66;;;19.04;57.58
56719;BME280;42597;40.636;0.278;2024-03-17T06:22:53;97745.19;;;19.05;57.58
56719;BME280;42597;40.636;0.278;2024-03-17T06:25:18;97753.06;;;19.06;57.58
56719;BME280;42597;40.636;0.278;2024-03-17T06:27:44;97758.13;;;19.04;57.38
56719;BME280;42597;40.636;0.278;2024-03-17T06:30:12;97750.69;;;19.05;57.66
56719;BME280;42597;40.636;0.278;2024-03-17T06:32:42;97754.59;;;19.04;57.48
56719;BME280;42597;40.636;0.278;2024-03-17T06:35:08;97757.72;;;19.02;57.53
56719;BME280;42597;40.636;0.278;2024-03-17T06:37:34;97749.91;;;19.04;57.34
56719;BME280;42597;40.636;0.278;2024-03-17T06:40:01;97746.78;;;19.09;57.29
56719;BME280;42597;40.636;0.278;2024-03-17T06:42:29;97745.63;;;19.10;55.89
56719;BME280;42597;40.636;0.278;2024-03-17T06:44:54;97752.25;;;19.09;56.92
56719;BME280;42597;40.636;0.278;2024-03-17T06:47:20;97762.41;;;18.98;55.89
56719;BME280;42597;40.636;0.278;2024-03-17T06:49:46;97773.41;;;19.12;55.60
56719;BME280;42597;40.636;0.278;2024-03-17T06:52:11;97766.38;;;19.15;56.88
56719;BME280;42597;40.636;0.278;2024-03-17T06:54:37;97751.38;;;18.80;57.81
56719;BME280;42597;40.636;0.278;2024-03-17T06:57:02;97762.34;;;18.80;56.95
56719;BME280;42597;40.636;0.278;2024-03-17T06:59:28;97758.53;;;19.13;56.95
56719;BME280;42597;40.636;0.278;2024-03-17T07:01:53;97758.94;;;19.19;56.51
56719;BME280;42597;40.636;0.278;2024-03-17T07:04:19;97767.16;;;19.19;56.20
56719;BME280;42597;40.636;0.278;2024-03-17T07:06:46;97764.78;;;19.03;56.51
56719;BME280;42597;40.636;0.278;2024-03-17T07:09:12;97773.38;;;19.09;56.30
56719;BME280;42597;40.636;0.278;2024-03-17T07:11:37;97778.88;;;19.12;56.56
56719;BME280;42597;40.636;0.278;2024-03-17T07:14:03;97770.28;;;19.17;56.53
56719;BME280;42597;40.636;0.278;2024-03-17T07:16:29;97775.00;;;19.20;55.00
56719;BME280;42597;40.636;0.278;2024-03-17T07:18:57;97776.56;;;19.21;55.73
56719;BME280;42597;40.636;0.278;2024-03-17T07:21:23;97774.94;;;18.99;55.52
56719;BME280;42597;40.636;0.278;2024-03-17T07:23:48;97779.28;;;19.21;56.27
56719;BME280;42597;40.636;0.278;2024-03-17T07:26:14;97777.72;;;19.20;55.81
56719;BME280;42597;40.636;0.278;2024-03-17T07:28:40;97769.50;;;19.20;55.98
56719;BME280;42597;40.636;0.278;2024-03-17T07:31:08;97768.34;;;19.29;55.88
56719;BME280;42597;40.636;0.278;2024-03-17T07:33:34;97767.97;;;19.23;56.16
56719;BME280;42597;40.636;0.278;2024-03-17T07:36:00;97773.47;;;19.27;55.96
56719;BME280;42597;40.636;0.278;2024-03-17T07:38:27;97778.16;;;19.30;55.56
56719;BME280;42597;40.636;0.278;2024-03-17T07:40:58;97780.41;;;18.99;54.79
56719;BME280;42597;40.636;0.278;2024-03-17T07:43:25;97780.44;;;19.06;56.58
56719;BME280;42597;40.636;0.278;2024-03-17T07:46:04;97782.81;;;19.11;54.72
56719;BME280;42597;40.636;0.278;2024-03-17T07:48:31;97784.78;;;19.14;56.20
56719;BME280;42597;40.636;0.278;2024-03-17T07:51:01;97783.63;;;19.26;55.72
56719;BME280;42597;40.636;0.278;2024-03-17T07:53:31;97775.00;;;19.24;55.16
56719;BME280;42597;40.636;0.278;2024-03-17T07:58:27;97780.50;;;19.31;55.48
56719;BME280;42597;40.636;0.278;2024-03-17T08:00:56;97778.13;;;19.15;54.10
56719;BME280;42597;40.636;0.278;2024-03-17T08:03:25;97783.97;;;19.17;56.02
56719;BME280;42597;40.636;0.278;2024-03-17T08:05:51;97792.25;;;19.32;55.34
56719;BME280;42597;40.636;0.278;2024-03-17T08:08:18;97782.00;;;19.11;53.96
56719;BME280;42597;40.636;0.278;2024-03-17T08:10:44;97793.00;;;19.18;55.33
56719;BME280;42597;40.636;0.278;2024-03-17T08:13:09;97795.41;;;19.34;55.26
56719;BME280;42597;40.636;0.278;2024-03-17T08:15:35;97802.44;;;19.45;54.76
56719;BME280;42597;40.636;0.278;2024-03-17T08:18:01;97798.56;;;19.50;54.51
56719;BME280;42597;40.636;0.278;2024-03-17T08:20:29;97793.03;;;19.32;54.05
56719;BME280;42597;40.636;0.278;2024-03-17T08:22:55;97786.41;;;19.40;54.78
56719;BME280;42597;40.636;0.278;2024-03-17T08:25:20;97794.56;;;19.19;52.59
56719;BME280;42597;40.636;0.278;2024-03-17T08:27:46;97788.28;;;19.11;53.11
56719;BME280;42597;40.636;0.278;2024-03-17T08:30:12;97787.13;;;19.19;54.45
56719;BME280;42597;40.636;0.278;2024-03-17T08:32:41;97782.91;;;19.47;54.34
56719;BME280;42597;40.636;0.278;2024-03-17T08:35:06;97788.00;;;19.59;54.20
56719;BME280;42597;40.636;0.278;2024-03-17T08:37:32;97784.47;;;19.52;53.90
56719;BME280;42597;40.636;0.278;2024-03-17T08:40:01;97774.66;;;19.36;53.88
56719;BME280;42597;40.636;0.278;2024-03-17T08:42:26;97787.56;;;19.36;54.54
56719;BME280;42597;40.636;0.278;2024-03-17T08:44:52;97783.66;;;19.44;54.60
56719;BME280;42597;40.636;0.278;2024-03-17T08:47:18;97782.50;;;19.48;54.43
56719;BME280;42597;40.636;0.278;2024-03-17T08:49:44;97776.69;;;19.64;53.87
56719;BME280;42597;40.636;0.278;2024-03-17T08:52:09;97778.25;;;19.65;53.82
56719;BME280;42597;40.636;0.278;2024-03-17T08:54:35;97775.91;;;19.71;54.24
56719;BME280;42597;40.636;0.278;2024-03-17T08:57:00;97780.22;;;19.79;53.23
56719;BME280;42597;40.636;0.278;2024-03-17T08:59:27;97782.19;;;19.79;52.99
56719;BME280;42597;40.636;0.278;2024-03-17T09:01:53;97778.25;;;19.72;52.81
56719;BME280;42597;40.636;0.278;2024-03-17T09:04:19;97778.25;;;19.65;51.88
56719;BME280;42597;40.636;0.278;2024-03-17T09:06:44;97768.09;;;19.91;52.27
56719;BME280;42597;40.636;0.278;2024-03-17T09:09:10;97779.03;;;20.05;51.68
56719;BME280;42597;40.636;0.278;2024-03-17T09:11:36;97775.13;;;19.99;52.01
56719;BME280;42597;40.636;0.278;2024-03-17T09:14:01;97774.75;;;20.11;52.19
56719;BME280;42597;40.636;0.278;2024-03-17T09:16:27;97764.91;;;20.25;51.41
56719;BME280;42597;40.636;0.278;2024-03-17T09:18:55;97773.94;;;20.29;51.76
56719;BME280;42597;40.636;0.278;2024-03-17T09:21:21;97773.16;;;20.28;50.94
56719;BME280;42597;40.636;0.278;2024-03-17T09:23:47;97774.69;;;20.33;50.31
56719;BME280;42597;40.636;0.278;2024-03-17T09:26:13;97775.09;;;20.49;50.27
56719;BME280;42597;40.636;0.278;2024-03-17T09:28:41;97775.84;;;20.46;50.43
56719;BME280;42597;40.636;0.278;2024-03-17T09:31:07;97777.47;;;20.51;50.03
56719;BME280;42597;40.636;0.278;2024-03-17T09:33:34;97776.63;;;20.64;49.18
56719;BME280;42597;40.636;0.278;2024-03-17T09:36:04;97774.69;;;20.58;50.41
56719;BME280;42597;40.636;0.278;2024-03-17T09:38:34;97772.69;;;20.69;50.55
56719;BME280;42597;40.636;0.278;2024-03-17T09:41:01;97774.22;;;20.74;50.21
56719;BME280;42597;40.636;0.278;2024-03-17T09:43:34;97774.22;;;20.74;51.77
56719;BME280;42597;40.636;0.278;2024-03-17T09:46:04;97774.22;;;20.81;51.67
56719;BME280;42597;40.636;0.278;2024-03-17T09:48:30;97777.72;;;20.85;51.45
56719;BME280;42597;40.636;0.278;2024-03-17T09:50:57;97765.97;;;20.88;51.79
56719;BME280;42597;40.636;0.278;2024-03-17T09:55:57;97758.81;;;21.05;51.10
56719;BME280;42597;40.636;0.278;2024-03-17T09:58:23;97768.25;;;21.04;51.84
56719;BME280;42597;40.636;0.278;2024-03-17T10:00:48;97765.50;;;21.07;50.44
56719;BME280;42597;40.636;0.278;2024-03-17T10:03:50;97769.34;;;21.20;49.82
56719;BME280;42597;40.636;0.278;2024-03-17T10:06:25;97763.88;;;21.13;48.20
56719;BME280;42597;40.636;0.278;2024-03-17T10:09:01;97770.91;;;21.22;48.86
56719;BME280;42597;40.636;0.278;2024-03-17T10:11:35;97767.78;;;21.19;48.34
56719;BME280;42597;40.636;0.278;2024-03-17T10:14:07;97763.03;;;21.24;47.12
56719;BME280;42597;40.636;0.278;2024-03-17T10:16:35;97774.03;;;21.24;46.93
56719;BME280;42597;40.636;0.278;2024-03-17T10:19:25;97768.22;;;21.11;47.57
56719;BME280;42597;40.636;0.278;2024-03-17T10:22:00;97765.00;;;21.23;47.64
56719;BME280;42597;40.636;0.278;2024-03-17T10:24:29;97756.69;;;21.41;47.04
56719;BME280;42597;40.636;0.278;2024-03-17T10:26:56;97762.91;;;21.52;46.89
56719;BME280;42597;40.636;0.278;2024-03-17T10:29:31;97757.41;;;21.49;46.18
56719;BME280;42597;40.636;0.278;2024-03-17T10:31:58;97763.66;;;21.56;45.89
56719;BME280;42597;40.636;0.278;2024-03-17T10:34:25;97764.47;;;21.50;44.47
56719;BME280;42597;40.636;0.278;2024-03-17T10:37:15;97757.28;;;21.66;45.38
56719;BME280;42597;40.636;0.278;2024-03-17T10:39:46;97760.31;;;21.83;45.73
56719;BME280;42597;40.636;0.278;2024-03-17T10:42:24;97764.22;;;21.85;45.13
56719;BME280;42597;40.636;0.278;2024-03-17T10:44:50;97757.44;;;21.97;45.12
56719;BME280;42597;40.636;0.278;2024-03-17T10:47:26;97761.44;;;21.89;44.57
56719;BME280;42597;40.636;0.278;2024-03-17T10:49:54;97757.44;;;21.97;44.92
56719;BME280;42597;40.636;0.278;2024-03-17T10:52:20;97748.41;;;21.97;44.98
56719;BME280;42597;40.636;0.278;2024-03-17T10:59:52;97739.63;;;22.16;43.56
56719;BME280;42597;40.636;0.278;2024-03-17T11:02:25;97746.72;;;22.13;44.66
56719;BME280;42597;40.636;0.278;2024-03-17T11:04:59;97745.94;;;22.13;44.92
56719;BME280;42597;40.636;0.278;2024-03-17T11:07:26;97740.72;;;22.22;45.05
56719;BME280;42597;40.636;0.278;2024-03-17T11:09:55;97749.41;;;22.21;45.29
56719;BME280;42597;40.636;0.278;2024-03-17T11:20:57;97739.34;;;22.45;44.73
56719;BME280;42597;40.636;0.278;2024-03-17T11:23:29;97733.94;;;22.34;43.01
56719;BME280;42597;40.636;0.278;2024-03-17T11:25:56;97724.78;;;22.44;43.32
56719;BME280;42597;40.636;0.278;2024-03-17T11:28:51;97729.84;;;22.49;41.85
56719;BME280;42597;40.636;0.278;2024-03-17T11:31:45;97733.41;;;22.46;41.92
56719;BME280;42597;40.636;0.278;2024-03-17T11:34:27;97726.59;;;22.58;40.71
56719;BME280;42597;40.636;0.278;2024-03-17T11:36:54;97728.09;;;22.62;40.82
56719;BME280;42597;40.636;0.278;2024-03-17T11:39:20;97724.22;;;22.60;41.06
56719;BME280;42597;40.636;0.278;2024-03-17T11:41:51;97717.75;;;22.74;41.44
56719;BME280;42597;40.636;0.278;2024-03-17T11:47:05;97716.81;;;22.87;41.64
56719;BME280;42597;40.636;0.278;2024-03-17T11:49:40;97709.06;;;22.75;41.05
56719;BME280;42597;40.636;0.278;2024-03-17T11:52:15;97707.00;;;22.83;41.08
56719;BME280;42597;40.636;0.278;2024-03-17T11:54:44;97708.38;;;22.67;41.31
56719;BME280;42597;40.636;0.278;2024-03-17T11:57:14;97712.13;;;22.84;40.94
56719;BME280;42597;40.636;0.278;2024-03-17T11:59:46;97707.09;;;22.76;41.93
56719;BME280;42597;40.636;0.278;2024-03-17T12:02:22;97706.75;;;22.70;41.94
56719;BME280;42597;40.636;0.278;2024-03-17T12:04:49;97704.19;;;22.86;41.20
56719;BME280;42597;40.636;0.278;2024-03-17T12:07:16;97698.59;;;22.97;42.99
56719;BME280;42597;40.636;0.278;2024-03-17T12:09:44;97701.53;;;22.79;45.76
56719;BME280;42597;40.636;0.278;2024-03-17T12:12:20;97692.50;;;22.79;48.57
56719;BME280;42597;40.636;0.278;2024-03-17T12:14:47;97686.88;;;22.86;49.26
56719;BME280;42597;40.636;0.278;2024-03-17T12:17:14;97688.34;;;22.98;48.01
56719;BME280;42597;40.636;0.278;2024-03-17T12:19:44;97687.81;;;22.76;48.66
56719;BME280;42597;40.636;0.278;2024-03-17T12:22:16;97678.28;;;22.84;48.44
56719;BME280;42597;40.636;0.278;2024-03-17T12:24:43;97671.91;;;22.87;47.45
56719;BME280;42597;40.636;0.278;2024-03-17T12:27:19;97681.38;;;22.86;47.00
56719;BME280;42597;40.636;0.278;2024-03-17T12:29:46;97672.09;;;23.03;46.30
56719;BME280;42597;40.636;0.278;2024-03-17T12:34:53;97673.22;;;23.09;40.51
56719;BME280;42597;40.636;0.278;2024-03-17T12:37:24;97666.28;;;22.98;38.19
56719;BME280;42597;40.636;0.278;2024-03-17T12:39:53;97660.81;;;22.94;38.66
56719;BME280;42597;40.636;0.278;2024-03-17T12:42:26;97668.63;;;22.99;37.58
56719;BME280;42597;40.636;0.278;2024-03-17T12:44:56;97666.41;;;23.18;37.77
56719;BME280;42597;40.636;0.278;2024-03-17T12:47:28;97653.50;;;23.11;38.07
56719;BME280;42597;40.636;0.278;2024-03-17T12:52:19;97644.25;;;22.98;38.93
56719;BME280;42597;40.636;0.278;2024-03-17T12:54:55;97643.31;;;23.08;38.38
56719;BME280;42597;40.636;0.278;2024-03-17T12:57:41;97639.84;;;23.27;39.35
56719;BME280;42597;40.636;0.278;2024-03-17T13:00:25;97632.72;;;23.30;39.18
56719;BME280;42597;40.636;0.278;2024-03-17T13:02:58;97636.03;;;23.21;39.05
56719;BME280;42597;40.636;0.278;2024-03-17T13:05:24;97626.19;;;23.20;38.55
56719;BME280;42597;40.636;0.278;2024-03-17T13:07:50;97626.59;;;23.19;38.54
56719;BME280;42597;40.636;0.278;2024-03-17T13:10:19;97626.44;;;23.29;38.48
56719;BME280;42597;40.636;0.278;2024-03-17T13:12:46;97620.63;;;23.47;37.64
56719;BME280;42597;40.636;0.278;2024-03-17T13:15:13;97632.72;;;23.30;38.78
56719;BME280;42597;40.636;0.278;2024-03-17T13:17:41;97625.97;;;23.07;38.58
56719;BME280;42597;40.636;0.278;2024-03-17T13:20:13;97622.66;;;23.20;38.40
56719;BME280;42597;40.636;0.278;2024-03-17T13:22:43;97615.56;;;23.19;38.54
56719;BME280;42597;40.636;0.278;2024-03-17T13:25:17;97617.88;;;23.24;38.76
56719;BME280;42597;40.636;0.278;2024-03-17T13:27:45;97616.56;;;23.32;39.79
56719;BME280;42597;40.636;0.278;2024-03-17T13:30:14;97611.16;;;23.25;39.30